sensor_id;sensor_type;location;lat;lon;timestamp;pressure;altitude;pressure_sealevel;temperature;humidity
42125;BME280;27787;44.594;11.046;2022-08-19T00:01:42;100372.38;;;22.55;100.00
42125;BME280;27787;44.594;11.046;2022-08-19T00:04:29;100359.63;;;22.59;100.00
42125;BME280;27787;44.594;11.046;2022-08-19T00:07:13;100356.06;;;22.58;100.00
42125;BME280;27787;44.594;11.046;2022-08-19T00:09:57;100354.31;;;22.57;100.00
42125;BME280;27787;44.594;11.046;2022-08-19T00:12:41;100353.53;;;22.55;100.00
42125;BME280;27787;44.594;11.046;2022-08-19T00:15:25;100354.59;;;22.51;100.00
42125;BME280;27787;44.594;11.046;2022-08-19T00:18:10;100347.72;;;22.46;100.00
42125;BME280;27787;44.594;11.046;2022-08-19T00:20:54;100349.69;;;22.42;100.00
42125;BME280;27787;44.594;11.046;2022-08-19T00:23:38;100345.31;;;22.40;100.00
42125;BME280;27787;44.594;11.046;2022-08-19T00:26:22;100326.72;;;22.35;100.00
42125;BME280;27787;44.594;11.046;2022-08-19T00:29:07;100302.66;;;22.32;100.00
42125;BME280;27787;44.594;11.046;2022-08-19T00:31:51;100298.38;;;22.28;100.00
42125;BME280;27787;44.594;11.046;2022-08-19T00:34:38;100302.03;;;22.27;100.00
42125;BME280;27787;44.594;11.046;2022-08-19T00:37:23;100324.53;;;22.24;100.00
42125;BME280;27787;44.594;11.046;2022-08-19T00:40:09;100334.41;;;22.24;100.00
42125;BME280;27787;44.594;11.046;2022-08-19T00:42:53;100343.50;;;22.21;100.00
42125;BME280;27787;44.594;11.046;2022-08-19T00:45:37;100347.94;;;22.22;100.00
42125;BME280;27787;44.594;11.046;2022-08-19T00:48:21;100357.56;;;22.28;100.00
42125;BME280;27787;44.594;11.046;2022-08-19T00:51:06;100349.41;;;22.29;100.00
42125;BME280;27787;44.594;11.046;2022-08-19T00:53:50;100355.72;;;22.28;100.00
42125;BME280;27787;44.594;11.046;2022-08-19T00:56:35;100366.56;;;22.27;100.00
42125;BME280;27787;44.594;11.046;2022-08-19T00:59:19;100367.47;;;22.26;100.00
42125;BME280;27787;44.594;11.046;2022-08-19T01:02:04;100368.44;;;22.25;100.00
42125;BME280;27787;44.594;11.046;2022-08-19T01:04:48;100371.13;;;22.25;100.00
42125;BME280;27787;44.594;11.046;2022-08-19T01:07:32;100361.22;;;22.25;100.00
42125;BME280;27787;44.594;11.046;2022-08-19T01:10:17;100358.63;;;22.24;100.00
42125;BME280;27787;44.594;11.046;2022-08-19T01:13:03;100347.66;;;22.28;100.00
42125;BME280;27787;44.594;11.046;2022-08-19T01:15:55;100340.47;;;22.29;100.00
42125;BME280;27787;44.594;11.046;2022-08-19T01:18:41;100332.41;;;22.29;100.00
42125;BME280;27787;44.594;11.046;2022-08-19T01:21:36;100344.16;;;22.26;100.00
42125;BME280;27787;44.594;11.046;2022-08-19T01:24:22;100340.66;;;22.24;100.00
42125;BME280;27787;44.594;11.046;2022-08-19T01:27:06;100342.38;;;22.27;100.00
42125;BME280;27787;44.594;11.046;2022-08-19T01:29:50;100341.25;;;22.31;100.00
42125;BME280;27787;44.594;11.046;2022-08-19T01:32:34;100352.81;;;22.33;100.00
42125;BME280;27787;44.594;11.046;2022-08-19T01:35:19;100338.50;;;22.32;100.00
42125;BME280;27787;44.594;11.046;2022-08-19T01:38:04;100325.84;;;22.34;100.00
42125;BME280;27787;44.594;11.046;2022-08-19T01:40:52;100323.94;;;22.36;100.00
42125;BME280;27787;44.594;11.046;2022-08-19T01:43:36;100327.72;;;22.32;100.00
42125;BME280;27787;44.594;11.046;2022-08-19T01:46:20;100328.75;;;22.30;100.00
42125;BME280;27787;44.594;11.046;2022-08-19T01:49:04;100320.84;;;22.27;100.00
42125;BME280;27787;44.594;11.046;2022-08-19T01:51:49;100324.53;;;22.24;100.00
42125;BME280;27787;44.594;11.046;2022-08-19T01:54:33;100321.91;;;22.23;100.00
42125;BME280;27787;44.594;11.046;2022-08-19T01:57:17;100303.16;;;22.21;100.00
42125;BME280;27787;44.594;11.046;2022-08-19T02:00:04;100303.25;;;22.20;100.00
42125;BME280;27787;44.594;11.046;2022-08-19T02:02:55;100288.06;;;22.19;100.00
42125;BME280;27787;44.594;11.046;2022-08-19T02:05:40;100289.38;;;22.10;100.00
42125;BME280;27787;44.594;11.046;2022-08-19T02:08:25;100296.03;;;22.01;100.00
42125;BME280;27787;44.594;11.046;2022-08-19T02:11:10;100289.13;;;21.96;100.00
42125;BME280;27787;44.594;11.046;2022-08-19T02:14:02;100276.47;;;21.98;100.00
42125;BME280;27787;44.594;11.046;2022-08-19T02:16:47;100274.72;;;21.97;100.00
42125;BME280;27787;44.594;11.046;2022-08-19T02:19:32;100279.38;;;21.93;100.00
42125;BME280;27787;44.594;11.046;2022-08-19T02:22:16;100270.59;;;21.90;100.00
42125;BME280;27787;44.594;11.046;2022-08-19T02:25:00;100273.50;;;21.85;100.00
42125;BME280;27787;44.594;11.046;2022-08-19T02:27:44;100285.41;;;21.79;99.73
42125;BME280;27787;44.594;11.046;2022-08-19T02:30:28;100275.81;;;21.74;99.02
42125;BME280;27787;44.594;11.046;2022-08-19T02:33:13;100270.88;;;21.65;98.43
42125;BME280;27787;44.594;11.046;2022-08-19T02:35:57;100272.31;;;21.53;98.00
42125;BME280;27787;44.594;11.046;2022-08-19T02:38:41;100262.69;;;21.47;99.07
42125;BME280;27787;44.594;11.046;2022-08-19T02:41:27;100253.13;;;21.42;99.48
42125;BME280;27787;44.594;11.046;2022-08-19T02:44:11;100247.91;;;21.39;98.89
42125;BME280;27787;44.594;11.046;2022-08-19T02:46:56;100249.81;;;21.35;99.28
42125;BME280;27787;44.594;11.046;2022-08-19T02:49:40;100246.50;;;21.30;99.00
42125;BME280;27787;44.594;11.046;2022-08-19T02:52:23;100270.72;;;21.29;99.23
42125;BME280;27787;44.594;11.046;2022-08-19T02:55:09;100281.41;;;21.30;99.53
42125;BME280;27787;44.594;11.046;2022-08-19T02:57:53;100293.06;;;21.29;97.54
42125;BME280;27787;44.594;11.046;2022-08-19T03:00:40;100285.03;;;21.29;97.04
42125;BME280;27787;44.594;11.046;2022-08-19T03:03:25;100282.25;;;21.31;97.12
42125;BME280;27787;44.594;11.046;2022-08-19T03:06:13;100279.56;;;21.31;95.85
42125;BME280;27787;44.594;11.046;2022-08-19T03:08:57;100277.03;;;21.28;96.43
42125;BME280;27787;44.594;11.046;2022-08-19T03:11:42;100270.78;;;21.27;98.68
42125;BME280;27787;44.594;11.046;2022-08-19T03:14:26;100271.88;;;21.21;99.36
42125;BME280;27787;44.594;11.046;2022-08-19T03:17:11;100257.81;;;21.16;99.41
42125;BME280;27787;44.594;11.046;2022-08-19T03:19:56;100258.13;;;21.09;100.00
42125;BME280;27787;44.594;11.046;2022-08-19T03:22:40;100239.50;;;21.06;100.00
42125;BME280;27787;44.594;11.046;2022-08-19T03:25:24;100240.44;;;21.05;100.00
42125;BME280;27787;44.594;11.046;2022-08-19T03:28:09;100230.63;;;21.04;100.00
42125;BME280;27787;44.594;11.046;2022-08-19T03:30:55;100226.34;;;21.00;100.00
42125;BME280;27787;44.594;11.046;2022-08-19T03:33:40;100230.94;;;20.98;100.00
42125;BME280;27787;44.594;11.046;2022-08-19T03:36:26;100229.28;;;20.94;100.00
42125;BME280;27787;44.594;11.046;2022-08-19T03:39:11;100232.75;;;20.97;100.00
42125;BME280;27787;44.594;11.046;2022-08-19T03:41:55;100233.41;;;21.02;100.00
42125;BME280;27787;44.594;11.046;2022-08-19T03:44:44;100233.06;;;21.10;100.00
42125;BME280;27787;44.594;11.046;2022-08-19T03:47:28;100239.91;;;21.17;100.00
42125;BME280;27787;44.594;11.046;2022-08-19T03:50:14;100245.91;;;21.22;100.00
42125;BME280;27787;44.594;11.046;2022-08-19T03:52:57;100260.16;;;21.24;100.00
42125;BME280;27787;44.594;11.046;2022-08-19T03:55:41;100269.16;;;21.23;100.00
42125;BME280;27787;44.594;11.046;2022-08-19T03:58:26;100267.38;;;21.22;100.00
42125;BME280;27787;44.594;11.046;2022-08-19T04:01:16;100277.25;;;21.21;100.00
42125;BME280;27787;44.594;11.046;2022-08-19T04:04:01;100274.78;;;21.17;100.00
42125;BME280;27787;44.594;11.046;2022-08-19T04:06:45;100286.19;;;21.22;100.00
42125;BME280;27787;44.594;11.046;2022-08-19T04:09:30;100294.16;;;21.25;100.00
42125;BME280;27787;44.594;11.046;2022-08-19T04:12:14;100311.72;;;21.32;100.00
42125;BME280;27787;44.594;11.046;2022-08-19T04:14:58;100320.47;;;21.37;100.00
42125;BME280;27787;44.594;11.046;2022-08-19T04:17:42;100321.53;;;21.33;100.00
42125;BME280;27787;44.594;11.046;2022-08-19T04:20:26;100310.34;;;21.22;100.00
42125;BME280;27787;44.594;11.046;2022-08-19T04:23:10;100303.78;;;21.09;100.00
42125;BME280;27787;44.594;11.046;2022-08-19T04:25:54;100307.81;;;20.99;100.00
42125;BME280;27787;44.594;11.046;2022-08-19T04:28:39;100297.38;;;20.91;100.00
42125;BME280;27787;44.594;11.046;2022-08-19T04:31:24;100298.53;;;20.85;100.00
42125;BME280;27787;44.594;11.046;2022-08-19T04:34:10;100303.09;;;20.83;100.00
42125;BME280;27787;44.594;11.046;2022-08-19T04:36:55;100297.03;;;20.78;100.00
42125;BME280;27787;44.594;11.046;2022-08-19T04:39:40;100297.38;;;20.71;100.00
42125;BME280;27787;44.594;11.046;2022-08-19T04:42:43;100308.22;;;20.68;100.00
42125;BME280;27787;44.594;11.046;2022-08-19T04:45:26;100318.28;;;20.63;100.00
42125;BME280;27787;44.594;11.046;2022-08-19T04:48:11;100341.66;;;20.59;100.00
42125;BME280;27787;44.594;11.046;2022-08-19T04:50:56;100338.22;;;20.55;100.00
42125;BME280;27787;44.594;11.046;2022-08-19T04:53:43;100324.13;;;20.50;100.00
42125;BME280;27787;44.594;11.046;2022-08-19T04:56:28;100322.69;;;20.42;100.00
42125;BME280;27787;44.594;11.046;2022-08-19T04:59:12;100318.41;;;20.36;100.00
42125;BME280;27787;44.594;11.046;2022-08-19T05:01:57;100320.47;;;20.29;100.00
42125;BME280;27787;44.594;11.046;2022-08-19T05:04:41;100338.25;;;20.32;100.00
42125;BME280;27787;44.594;11.046;2022-08-19T05:07:26;100314.00;;;20.35;100.00
42125;BME280;27787;44.594;11.046;2022-08-19T05:10:10;100265.75;;;20.35;100.00
42125;BME280;27787;44.594;11.046;2022-08-19T05:12:54;100279.44;;;20.27;100.00
42125;BME280;27787;44.594;11.046;2022-08-19T05:15:38;100307.59;;;20.16;100.00
42125;BME280;27787;44.594;11.046;2022-08-19T05:18:22;100310.13;;;19.97;100.00
42125;BME280;27787;44.594;11.046;2022-08-19T05:21:25;100310.53;;;19.86;100.00
42125;BME280;27787;44.594;11.046;2022-08-19T05:24:30;100324.53;;;19.94;100.00
42125;BME280;27787;44.594;11.046;2022-08-19T05:27:18;100343.69;;;20.07;100.00
42125;BME280;27787;44.594;11.046;2022-08-19T05:30:02;100350.31;;;20.20;100.00
42125;BME280;27787;44.594;11.046;2022-08-19T05:32:46;100354.16;;;20.37;100.00
42125;BME280;27787;44.594;11.046;2022-08-19T05:35:30;100353.06;;;20.41;100.00
42125;BME280;27787;44.594;11.046;2022-08-19T05:38:15;100356.00;;;20.35;100.00
42125;BME280;27787;44.594;11.046;2022-08-19T05:40:59;100354.69;;;20.23;100.00
42125;BME280;27787;44.594;11.046;2022-08-19T05:43:43;100356.78;;;20.15;100.00
42125;BME280;27787;44.594;11.046;2022-08-19T05:46:27;100361.59;;;20.05;100.00
42125;BME280;27787;44.594;11.046;2022-08-19T05:49:11;100359.50;;;19.90;100.00
42125;BME280;27787;44.594;11.046;2022-08-19T05:51:55;100339.53;;;19.75;100.00
42125;BME280;27787;44.594;11.046;2022-08-19T05:54:40;100340.03;;;19.61;100.00
42125;BME280;27787;44.594;11.046;2022-08-19T05:57:25;100345.66;;;19.54;100.00
42125;BME280;27787;44.594;11.046;2022-08-19T06:00:10;100356.41;;;19.52;100.00
42125;BME280;27787;44.594;11.046;2022-08-19T06:02:55;100370.78;;;19.50;100.00
42125;BME280;27787;44.594;11.046;2022-08-19T06:05:40;100364.59;;;19.48;100.00
42125;BME280;27787;44.594;11.046;2022-08-19T06:08:25;100358.25;;;19.50;100.00
42125;BME280;27787;44.594;11.046;2022-08-19T06:11:13;100363.63;;;19.50;100.00
42125;BME280;27787;44.594;11.046;2022-08-19T06:13:57;100370.66;;;19.53;100.00
42125;BME280;27787;44.594;11.046;2022-08-19T06:16:44;100384.94;;;19.55;100.00
42125;BME280;27787;44.594;11.046;2022-08-19T06:19:29;100401.75;;;19.58;100.00
42125;BME280;27787;44.594;11.046;2022-08-19T06:22:16;100407.91;;;19.60;100.00
42125;BME280;27787;44.594;11.046;2022-08-19T06:25:00;100411.72;;;19.53;100.00
42125;BME280;27787;44.594;11.046;2022-08-19T06:27:44;100408.53;;;19.42;100.00
42125;BME280;27787;44.594;11.046;2022-08-19T06:30:28;100415.06;;;19.33;100.00
42125;BME280;27787;44.594;11.046;2022-08-19T06:33:12;100407.81;;;19.10;100.00
42125;BME280;27787;44.594;11.046;2022-08-19T06:35:56;100424.28;;;18.98;100.00
42125;BME280;27787;44.594;11.046;2022-08-19T06:38:39;100417.44;;;18.90;100.00
42125;BME280;27787;44.594;11.046;2022-08-19T06:41:24;100418.50;;;18.84;100.00
42125;BME280;27787;44.594;11.046;2022-08-19T06:44:09;100431.00;;;18.83;100.00
42125;BME280;27787;44.594;11.046;2022-08-19T06:46:54;100435.47;;;18.83;100.00
42125;BME280;27787;44.594;11.046;2022-08-19T06:49:38;100451.50;;;18.83;100.00
42125;BME280;27787;44.594;11.046;2022-08-19T06:52:22;100446.06;;;18.86;100.00
42125;BME280;27787;44.594;11.046;2022-08-19T06:55:07;100458.50;;;18.87;100.00
42125;BME280;27787;44.594;11.046;2022-08-19T06:57:51;100457.63;;;18.86;100.00
42125;BME280;27787;44.594;11.046;2022-08-19T07:00:37;100455.13;;;18.82;100.00
42125;BME280;27787;44.594;11.046;2022-08-19T07:03:21;100451.50;;;18.83;100.00
42125;BME280;27787;44.594;11.046;2022-08-19T07:06:06;100451.50;;;18.83;100.00
42125;BME280;27787;44.594;11.046;2022-08-19T07:08:51;100441.63;;;18.85;100.00
42125;BME280;27787;44.594;11.046;2022-08-19T07:11:35;100449.59;;;18.88;100.00
42125;BME280;27787;44.594;11.046;2022-08-19T07:14:21;100433.44;;;18.91;100.00
42125;BME280;27787;44.594;11.046;2022-08-19T07:17:07;100439.56;;;18.95;100.00
42125;BME280;27787;44.594;11.046;2022-08-19T07:19:52;100438.69;;;18.94;100.00
42125;BME280;27787;44.594;11.046;2022-08-19T07:22:38;100438.75;;;18.93;100.00
42125;BME280;27787;44.594;11.046;2022-08-19T07:25:23;100451.22;;;18.92;100.00
42125;BME280;27787;44.594;11.046;2022-08-19T07:28:07;100443.22;;;18.92;100.00
42125;BME280;27787;44.594;11.046;2022-08-19T07:30:53;100451.19;;;18.94;100.00
42125;BME280;27787;44.594;11.046;2022-08-19T07:33:37;100452.78;;;18.99;100.00
42125;BME280;27787;44.594;11.046;2022-08-19T07:36:22;100461.44;;;19.07;100.00
42125;BME280;27787;44.594;11.046;2022-08-19T07:39:08;100465.69;;;19.14;100.00
42125;BME280;27787;44.594;11.046;2022-08-19T07:41:53;100468.91;;;19.24;100.00
42125;BME280;27787;44.594;11.046;2022-08-19T07:44:37;100477.69;;;19.29;100.00
42125;BME280;27787;44.594;11.046;2022-08-19T07:47:21;100481.00;;;19.36;100.00
42125;BME280;27787;44.594;11.046;2022-08-19T07:50:06;100487.97;;;19.41;100.00
42125;BME280;27787;44.594;11.046;2022-08-19T07:52:51;100476.28;;;19.44;100.00
42125;BME280;27787;44.594;11.046;2022-08-19T07:55:35;100476.19;;;19.47;100.00
42125;BME280;27787;44.594;11.046;2022-08-19T07:58:20;100476.22;;;19.45;100.00
42125;BME280;27787;44.594;11.046;2022-08-19T08:01:04;100476.94;;;19.51;100.00
42125;BME280;27787;44.594;11.046;2022-08-19T08:03:50;100481.38;;;19.52;100.00
42125;BME280;27787;44.594;11.046;2022-08-19T08:06:53;100469.06;;;19.46;99.31
42125;BME280;27787;44.594;11.046;2022-08-19T08:09:56;100472.63;;;19.47;99.56
42125;BME280;27787;44.594;11.046;2022-08-19T08:12:40;100459.94;;;19.52;100.00
42125;BME280;27787;44.594;11.046;2022-08-19T08:15:25;100455.41;;;19.55;99.13
42125;BME280;27787;44.594;11.046;2022-08-19T08:18:09;100463.34;;;19.58;99.20
42125;BME280;27787;44.594;11.046;2022-08-19T08:20:54;100474.66;;;19.66;99.83
42125;BME280;27787;44.594;11.046;2022-08-19T08:23:38;100463.56;;;19.77;100.00
42125;BME280;27787;44.594;11.046;2022-08-19T08:26:23;100462.53;;;19.81;100.00
42125;BME280;27787;44.594;11.046;2022-08-19T08:29:09;100463.25;;;19.86;100.00
42125;BME280;27787;44.594;11.046;2022-08-19T08:31:53;100460.94;;;20.00;100.00
42125;BME280;27787;44.594;11.046;2022-08-19T08:34:37;100458.00;;;20.08;100.00
42125;BME280;27787;44.594;11.046;2022-08-19T08:37:21;100468.25;;;20.20;99.95
42125;BME280;27787;44.594;11.046;2022-08-19T08:40:07;100466.41;;;20.22;97.81
42125;BME280;27787;44.594;11.046;2022-08-19T08:43:03;100468.78;;;20.30;99.16
42125;BME280;27787;44.594;11.046;2022-08-19T08:45:52;100470.31;;;20.37;98.82
42125;BME280;27787;44.594;11.046;2022-08-19T08:48:39;100477.09;;;20.47;100.00
42125;BME280;27787;44.594;11.046;2022-08-19T08:51:29;100484.69;;;20.59;97.19
42125;BME280;27787;44.594;11.046;2022-08-19T08:54:17;100491.13;;;20.54;95.04
42125;BME280;27787;44.594;11.046;2022-08-19T08:57:04;100499.31;;;20.51;95.27
42125;BME280;27787;44.594;11.046;2022-08-19T08:59:51;100496.28;;;20.60;97.31
42125;BME280;27787;44.594;11.046;2022-08-19T09:02:38;100503.03;;;20.70;97.20
42125;BME280;27787;44.594;11.046;2022-08-19T09:05:22;100496.69;;;20.73;94.73
42125;BME280;27787;44.594;11.046;2022-08-19T09:08:10;100507.16;;;20.79;94.92
42125;BME280;27787;44.594;11.046;2022-08-19T09:10:58;100499.19;;;20.77;92.97
42125;BME280;27787;44.594;11.046;2022-08-19T09:16:45;100513.88;;;20.90;91.94
42125;BME280;27787;44.594;11.046;2022-08-19T09:19:29;100511.88;;;20.96;92.85
42125;BME280;27787;44.594;11.046;2022-08-19T09:22:13;100524.19;;;21.01;93.15
42125;BME280;27787;44.594;11.046;2022-08-19T09:24:57;100534.81;;;21.04;90.16
42125;BME280;27787;44.594;11.046;2022-08-19T09:27:42;100524.00;;;21.06;90.82
42125;BME280;27787;44.594;11.046;2022-08-19T09:30:27;100526.44;;;21.12;91.01
42125;BME280;27787;44.594;11.046;2022-08-19T09:33:11;100524.25;;;21.21;90.46
42125;BME280;27787;44.594;11.046;2022-08-19T09:36:05;100524.94;;;21.28;91.68
42125;BME280;27787;44.594;11.046;2022-08-19T09:38:51;100515.94;;;21.29;88.72
42125;BME280;27787;44.594;11.046;2022-08-19T09:41:35;100522.91;;;21.33;89.63
42125;BME280;27787;44.594;11.046;2022-08-19T09:44:19;100517.25;;;21.41;87.97
42125;BME280;27787;44.594;11.046;2022-08-19T09:47:07;100526.19;;;21.41;86.01
42125;BME280;27787;44.594;11.046;2022-08-19T09:49:51;100519.72;;;21.45;88.14
42125;BME280;27787;44.594;11.046;2022-08-19T09:52:35;100519.72;;;21.45;86.83
42125;BME280;27787;44.594;11.046;2022-08-19T09:55:20;100513.69;;;21.40;85.28
42125;BME280;27787;44.594;11.046;2022-08-19T09:58:04;100529.81;;;21.40;84.60
42125;BME280;27787;44.594;11.046;2022-08-19T10:00:48;100522.69;;;21.39;85.08
42125;BME280;27787;44.594;11.046;2022-08-19T10:03:32;100527.03;;;21.42;82.52
42125;BME280;27787;44.594;11.046;2022-08-19T10:06:17;100523.28;;;21.46;84.76
42125;BME280;27787;44.594;11.046;2022-08-19T10:09:01;100522.19;;;21.52;84.99
42125;BME280;27787;44.594;11.046;2022-08-19T10:11:47;100522.97;;;21.54;84.84
42125;BME280;27787;44.594;11.046;2022-08-19T10:14:33;100524.53;;;21.59;85.71
42125;BME280;27787;44.594;11.046;2022-08-19T10:17:18;100524.59;;;21.58;84.99
42125;BME280;27787;44.594;11.046;2022-08-19T10:20:02;100521.91;;;21.58;83.97
42125;BME280;27787;44.594;11.046;2022-08-19T10:22:48;100517.28;;;21.61;83.67
42125;BME280;27787;44.594;11.046;2022-08-19T10:25:32;100517.28;;;21.61;83.23
42125;BME280;27787;44.594;11.046;2022-08-19T10:28:16;100513.91;;;21.56;83.38
42125;BME280;27787;44.594;11.046;2022-08-19T10:31:08;100509.22;;;21.61;83.21
42125;BME280;27787;44.594;11.046;2022-08-19T10:33:53;100500.69;;;21.72;83.43
42125;BME280;27787;44.594;11.046;2022-08-19T10:36:43;100499.22;;;21.85;82.49
42125;BME280;27787;44.594;11.046;2022-08-19T10:39:31;100495.28;;;21.94;81.75
42125;BME280;27787;44.594;11.046;2022-08-19T10:42:15;100490.91;;;21.91;81.69
42125;BME280;27787;44.594;11.046;2022-08-19T10:45:00;100491.78;;;21.92;82.25
42125;BME280;27787;44.594;11.046;2022-08-19T10:47:44;100483.59;;;21.95;82.66
42125;BME280;27787;44.594;11.046;2022-08-19T10:50:28;100471.22;;;21.91;81.29
42125;BME280;27787;44.594;11.046;2022-08-19T10:53:30;100462.09;;;21.95;80.34
42125;BME280;27787;44.594;11.046;2022-08-19T10:56:15;100457.44;;;21.98;80.42
42125;BME280;27787;44.594;11.046;2022-08-19T10:59:25;100464.44;;;22.02;80.37
42125;BME280;27787;44.594;11.046;2022-08-19T11:02:11;100469.63;;;22.07;79.33
42125;BME280;27787;44.594;11.046;2022-08-19T11:04:56;100465.13;;;22.07;77.66
42125;BME280;27787;44.594;11.046;2022-08-19T11:07:40;100477.41;;;22.13;78.67
42125;BME280;27787;44.594;11.046;2022-08-19T11:10:24;100462.44;;;22.07;79.02
42125;BME280;27787;44.594;11.046;2022-08-19T11:13:08;100466.81;;;22.10;79.65
42125;BME280;27787;44.594;11.046;2022-08-19T11:15:56;100460.41;;;22.13;78.53
42125;BME280;27787;44.594;11.046;2022-08-19T11:18:41;100466.25;;;22.22;80.37
42125;BME280;27787;44.594;11.046;2022-08-19T11:21:31;100458.41;;;22.36;80.38
42125;BME280;27787;44.594;11.046;2022-08-19T11:24:17;100456.59;;;22.37;79.21
42125;BME280;27787;44.594;11.046;2022-08-19T11:27:06;100446.44;;;22.44;79.88
42125;BME280;27787;44.594;11.046;2022-08-19T11:29:51;100459.66;;;22.48;77.32
42125;BME280;27787;44.594;11.046;2022-08-19T11:32:36;100457.59;;;22.55;76.39
42125;BME280;27787;44.594;11.046;2022-08-19T11:35:20;100473.28;;;22.64;75.80
42125;BME280;27787;44.594;11.046;2022-08-19T11:38:05;100471.53;;;22.63;73.55
42125;BME280;27787;44.594;11.046;2022-08-19T11:40:59;100459.03;;;22.62;73.02
42125;BME280;27787;44.594;11.046;2022-08-19T11:43:43;100453.72;;;22.79;73.91
42125;BME280;27787;44.594;11.046;2022-08-19T11:46:28;100454.41;;;22.84;74.00
42125;BME280;27787;44.594;11.046;2022-08-19T11:49:14;100452.66;;;22.83;74.81
42125;BME280;27787;44.594;11.046;2022-08-19T11:51:58;100461.09;;;22.94;74.60
42125;BME280;27787;44.594;11.046;2022-08-19T11:54:42;100459.72;;;22.86;72.30
42125;BME280;27787;44.594;11.046;2022-08-19T11:57:26;100465.88;;;22.88;71.71
42125;BME280;27787;44.594;11.046;2022-08-19T12:00:10;100459.44;;;22.92;71.38
42125;BME280;27787;44.594;11.046;2022-08-19T12:02:56;100447.72;;;22.93;72.10
42125;BME280;27787;44.594;11.046;2022-08-19T12:05:40;100454.84;;;22.94;72.77
42125;BME280;27787;44.594;11.046;2022-08-19T12:08:25;100447.84;;;22.90;73.04
42125;BME280;27787;44.594;11.046;2022-08-19T12:11:09;100445.81;;;22.95;71.71
42125;BME280;27787;44.594;11.046;2022-08-19T12:13:53;100449.13;;;23.00;70.16
42125;BME280;27787;44.594;11.046;2022-08-19T12:16:38;100451.69;;;23.03;70.36
42125;BME280;27787;44.594;11.046;2022-08-19T12:19:23;100443.88;;;23.16;71.59
42125;BME280;27787;44.594;11.046;2022-08-19T12:22:08;100436.03;;;23.11;70.99
42125;BME280;27787;44.594;11.046;2022-08-19T12:24:52;100442.78;;;23.20;68.74
42125;BME280;27787;44.594;11.046;2022-08-19T12:27:37;100442.97;;;23.34;69.72
42125;BME280;27787;44.594;11.046;2022-08-19T12:30:22;100450.38;;;23.29;70.11
42125;BME280;27787;44.594;11.046;2022-08-19T12:33:06;100427.25;;;23.25;70.69
42125;BME280;27787;44.594;11.046;2022-08-19T12:35:51;100422.81;;;23.24;70.65
42125;BME280;27787;44.594;11.046;2022-08-19T12:38:35;100427.84;;;23.32;68.84
42125;BME280;27787;44.594;11.046;2022-08-19T12:41:20;100430.56;;;23.30;70.71
42125;BME280;27787;44.594;11.046;2022-08-19T12:44:05;100440.19;;;23.36;70.33
42125;BME280;27787;44.594;11.046;2022-08-19T12:46:50;100432.19;;;23.34;70.45
42125;BME280;27787;44.594;11.046;2022-08-19T12:49:34;100434.97;;;23.33;71.61
42125;BME280;27787;44.594;11.046;2022-08-19T12:52:20;100432.03;;;23.37;71.99
42125;BME280;27787;44.594;11.046;2022-08-19T12:55:05;100424.91;;;23.36;72.23
42125;BME280;27787;44.594;11.046;2022-08-19T12:57:50;100429.25;;;23.39;69.35
42125;BME280;27787;44.594;11.046;2022-08-19T13:00:34;100421.81;;;23.44;70.66
42125;BME280;27787;44.594;11.046;2022-08-19T13:03:18;100430.69;;;23.46;68.67
42125;BME280;27787;44.594;11.046;2022-08-19T13:06:02;100429.00;;;23.43;66.02
42125;BME280;27787;44.594;11.046;2022-08-19T13:08:46;100424.03;;;23.53;67.33
42125;BME280;27787;44.594;11.046;2022-08-19T13:11:31;100430.72;;;23.63;67.35
42125;BME280;27787;44.594;11.046;2022-08-19T13:14:17;100422.47;;;23.66;66.24
42125;BME280;27787;44.594;11.046;2022-08-19T13:17:02;100425.16;;;23.66;65.76
42125;BME280;27787;44.594;11.046;2022-08-19T13:19:46;100414.53;;;23.80;66.70
42125;BME280;27787;44.594;11.046;2022-08-19T13:22:30;100421.19;;;23.91;64.50
42125;BME280;27787;44.594;11.046;2022-08-19T13:25:15;100417.31;;;23.96;64.70
42125;BME280;27787;44.594;11.046;2022-08-19T13:28:01;100426.56;;;23.91;63.29
42125;BME280;27787;44.594;11.046;2022-08-19T13:30:46;100414.25;;;24.02;62.09
42125;BME280;27787;44.594;11.046;2022-08-19T13:33:49;100412.56;;;24.17;63.76
42125;BME280;27787;44.594;11.046;2022-08-19T13:36:33;100413.16;;;24.39;63.73
42125;BME280;27787;44.594;11.046;2022-08-19T13:39:18;100408.31;;;24.62;63.10
42125;BME280;27787;44.594;11.046;2022-08-19T13:42:02;100413.44;;;24.66;61.63
42125;BME280;27787;44.594;11.046;2022-08-19T13:44:48;100418.06;;;24.64;63.58
42125;BME280;27787;44.594;11.046;2022-08-19T13:47:32;100428.75;;;24.50;64.43
42125;BME280;27787;44.594;11.046;2022-08-19T13:50:19;100411.88;;;24.29;65.31
42125;BME280;27787;44.594;11.046;2022-08-19T13:53:04;100420.38;;;24.22;65.34
42125;BME280;27787;44.594;11.046;2022-08-19T13:55:48;100425.59;;;24.09;66.63
42125;BME280;27787;44.594;11.046;2022-08-19T13:58:34;100431.47;;;24.00;65.89
42125;BME280;27787;44.594;11.046;2022-08-19T14:01:21;100425.63;;;23.92;67.38
42125;BME280;27787;44.594;11.046;2022-08-19T14:04:05;100427.69;;;23.87;65.82
42125;BME280;27787;44.594;11.046;2022-08-19T14:06:49;100416.66;;;23.91;64.17
42125;BME280;27787;44.594;11.046;2022-08-19T14:09:33;100421.22;;;24.06;64.94
42125;BME280;27787;44.594;11.046;2022-08-19T14:12:21;100415.25;;;24.17;64.46